Time;durP1;ratioP1;P1;durP2;ratioP2;P2;SDS_P1;SDS_P2;PMS_P1;PMS_P2;Temp;Humidity;BMP_temperature;BMP_pressure;BME280_temperature;BME280_humidity;BME280_pressure;Samples;Min_cycle;Max_cycle;Signal;HPM_P1;HPM_P2
2021/07/03 00:01:56;;;;;;;0.40;0.20;;;14.90;99.90;;;;;;5091806;28;20382;-84
2021/07/03 00:04:23;;;;;;;0.40;0.22;;;14.90;99.90;;;;;;5092643;28;20373;-82
2021/07/03 00:06:48;;;;;;;0.40;0.30;;;14.80;99.90;;;;;;5091938;28;20370;-83
2021/07/03 00:09:14;;;;;;;0.40;0.20;;;15.00;99.90;;;;;;5092324;28;20442;-84
2021/07/03 00:11:41;;;;;;;0.40;0.20;;;14.90;99.90;;;;;;5092150;28;20789;-83
2021/07/03 00:14:07;;;;;;;0.40;0.30;;;15.00;99.90;;;;;;5091769;28;20379;-83
2021/07/03 00:16:33;;;;;;;0.40;0.20;;;14.90;99.90;;;;;;5092466;28;20374;-82
2021/07/03 00:18:59;;;;;;;0.40;0.20;;;14.90;99.90;;;;;;5092110;28;20385;-84
2021/07/03 00:21:25;;;;;;;0.40;0.20;;;15.00;99.90;;;;;;5091847;28;20468;-84
2021/07/03 00:23:51;;;;;;;0.40;0.20;;;14.90;99.90;;;;;;5091585;28;20461;-83
2021/07/03 00:26:16;;;;;;;0.40;0.20;;;14.70;99.90;;;;;;5104387;28;20954;-83
2021/07/03 00:28:42;;;;;;;0.40;0.20;;;15.10;99.90;;;;;;5112022;28;20372;-84
2021/07/03 00:31:07;;;;;;;0.40;0.30;;;14.80;99.90;;;;;;5111389;28;20482;-84
2021/07/03 00:33:33;;;;;;;0.40;0.20;;;14.80;99.90;;;;;;5093804;28;20381;-84
2021/07/03 00:35:59;;;;;;;0.40;0.20;;;14.90;99.90;;;;;;5111382;28;20429;-84
2021/07/03 00:38:24;;;;;;;0.40;0.20;;;14.80;99.90;;;;;;5093862;28;20384;-83
2021/07/03 00:40:50;;;;;;;0.40;0.20;;;14.80;99.90;;;;;;5111504;28;20836;-84
2021/07/03 00:43:16;;;;;;;0.40;0.20;;;14.90;99.90;;;;;;5111609;28;20777;-84
2021/07/03 00:45:41;;;;;;;0.40;0.30;;;14.80;99.90;;;;;;5112312;28;20384;-83
2021/07/03 00:48:07;;;;;;;0.40;0.20;;;15.00;99.90;;;;;;5111190;28;20391;-83
2021/07/03 00:50:33;;;;;;;0.40;0.20;;;15.00;99.90;;;;;;5093815;28;20404;-83
2021/07/03 00:52:59;;;;;;;0.40;0.20;;;15.00;99.90;;;;;;5100344;28;20437;-84
2021/07/03 00:55:26;;;;;;;0.40;0.30;;;14.90;99.90;;;;;;5073495;28;20875;-83
2021/07/03 00:57:52;;;;;;;0.40;0.20;;;15.00;99.90;;;;;;5091004;28;20378;-82
2021/07/03 01:00:19;;;;;;;0.40;0.30;;;14.90;99.90;;;;;;5091632;28;20373;-84
2021/07/03 01:02:45;;;;;;;0.40;0.20;;;14.90;99.90;;;;;;5091226;28;20382;-84
2021/07/03 01:05:12;;;;;;;0.40;0.30;;;14.90;99.90;;;;;;5091339;28;20395;-83
2021/07/03 01:07:38;;;;;;;0.40;0.20;;;14.80;99.90;;;;;;5091254;28;20394;-82
2021/07/03 01:10:15;;;;;;;0.40;0.20;;;14.80;99.90;;;;;;5072271;28;20498;-83
2021/07/03 01:12:41;;;;;;;0.40;0.20;;;14.80;99.90;;;;;;5073026;28;20811;-83
2021/07/03 01:15:07;;;;;;;0.40;0.20;;;14.90;99.90;;;;;;5090224;28;20454;-83
2021/07/03 01:17:33;;;;;;;0.40;0.20;;;14.90;99.90;;;;;;5091206;28;20373;-84
2021/07/03 01:19:58;;;;;;;0.40;0.20;;;14.90;99.90;;;;;;5090363;28;20675;-83
2021/07/03 01:22:24;;;;;;;0.40;0.20;;;14.90;99.90;;;;;;5091158;28;20373;-84
2021/07/03 01:24:50;;;;;;;0.40;0.20;;;14.70;99.90;;;;;;5090413;28;20428;-83
2021/07/03 01:27:16;;;;;;;0.40;0.20;;;14.80;99.90;;;;;;5091301;28;20421;-84
2021/07/03 01:29:42;;;;;;;0.40;0.20;;;14.80;99.90;;;;;;5072883;28;20377;-83
2021/07/03 01:32:09;;;;;;;0.40;0.20;;;14.80;99.90;;;;;;5071996;28;20398;-84
2021/07/03 01:34:35;;;;;;;0.40;0.20;;;14.80;99.90;;;;;;5090629;28;20756;-83
2021/07/03 01:37:00;;;;;;;0.40;0.20;;;14.70;99.90;;;;;;5090540;28;20760;-83
2021/07/03 01:39:27;;;;;;;0.40;0.20;;;14.50;99.90;;;;;;5090898;28;20402;-83
2021/07/03 01:41:54;;;;;;;0.40;0.22;;;14.50;99.90;;;;;;5090563;28;20374;-83
2021/07/03 01:44:29;;;;;;;0.40;0.20;;;14.50;99.90;;;;;;5091078;28;20390;-82
2021/07/03 01:46:58;;;;;;;0.40;0.20;;;14.40;99.90;;;;;;5090671;28;20405;-83
2021/07/03 01:49:27;;;;;;;0.40;0.20;;;14.20;99.90;;;;;;5091046;28;20375;-83
2021/07/03 01:51:54;;;;;;;0.40;0.20;;;14.10;99.90;;;;;;5072697;28;20401;-82
2021/07/03 01:54:20;;;;;;;0.40;0.20;;;14.20;99.90;;;;;;5111252;28;20398;-82
2021/07/03 01:56:57;;;;;;;0.40;0.20;;;14.20;99.90;;;;;;5111388;28;20369;-83
2021/07/03 01:59:32;;;;;;;0.40;0.20;;;14.20;99.90;;;;;;5111305;28;20372;-83
2021/07/03 02:02:01;;;;;;;0.40;0.20;;;14.20;99.90;;;;;;5110498;28;20383;-84
2021/07/03 02:04:27;;;;;;;0.40;0.20;;;14.30;99.90;;;;;;5110827;28;20365;-84
2021/07/03 02:06:53;;;;;;;0.40;0.20;;;14.40;99.90;;;;;;5110682;28;20388;-84
2021/07/03 02:09:20;;;;;;;0.40;0.20;;;14.40;99.90;;;;;;5110845;28;20408;-84
2021/07/03 02:11:47;;;;;;;0.95;0.35;;;14.40;99.90;;;;;;5092972;28;20404;-82
2021/07/03 02:14:13;;;;;;;0.40;0.20;;;14.30;99.90;;;;;;5110667;28;20372;-84
2021/07/03 02:16:39;;;;;;;0.40;0.20;;;14.40;99.90;;;;;;5111275;28;20369;-83
2021/07/03 02:19:06;;;;;;;0.40;0.20;;;14.30;99.90;;;;;;5111906;28;20399;-84
2021/07/03 02:21:33;;;;;;;0.40;0.20;;;14.20;99.90;;;;;;5114612;28;20727;-84
2021/07/03 02:23:59;;;;;;;0.40;0.20;;;14.20;99.90;;;;;;5114251;28;20836;-84
2021/07/03 02:26:25;;;;;;;0.40;0.20;;;14.20;99.90;;;;;;5095839;28;20959;-84
2021/07/03 02:28:53;;;;;;;0.40;0.20;;;14.10;99.90;;;;;;5114039;28;20459;-86
2021/07/03 02:31:19;;;;;;;0.40;0.20;;;14.10;99.90;;;;;;5114668;28;20396;-83
2021/07/03 02:33:46;;;;;;;0.40;0.30;;;14.00;99.90;;;;;;5114533;28;20576;-82
2021/07/03 02:36:12;;;;;;;0.70;0.70;;;13.90;99.90;;;;;;5113836;28;20381;-84
2021/07/03 02:38:38;;;;;;;0.40;0.20;;;14.00;99.90;;;;;;5114672;28;20390;-84
2021/07/03 02:41:04;;;;;;;0.40;0.20;;;13.90;99.90;;;;;;5113587;28;20376;-84
2021/07/03 02:43:30;;;;;;;0.40;0.20;;;13.90;99.90;;;;;;5114364;28;20369;-84
2021/07/03 02:45:56;;;;;;;0.40;0.20;;;14.30;99.90;;;;;;5113832;28;20836;-83
2021/07/03 02:48:21;;;;;;;0.40;0.20;;;14.00;99.90;;;;;;5114132;28;20712;-84
2021/07/03 02:50:47;;;;;;;0.40;0.20;;;14.10;99.90;;;;;;5113956;28;20409;-84
2021/07/03 02:53:13;;;;;;;0.40;0.20;;;14.20;99.90;;;;;;5102359;28;20385;-83
2021/07/03 02:55:39;;;;;;;0.40;0.20;;;14.00;99.90;;;;;;5093942;28;20381;-83
2021/07/03 02:58:05;;;;;;;0.40;0.20;;;14.00;99.90;;;;;;5093353;28;20378;-84
2021/07/03 03:00:32;;;;;;;0.40;0.20;;;14.00;99.90;;;;;;5093569;28;20374;-84
2021/07/03 03:02:58;;;;;;;0.40;0.20;;;14.00;99.90;;;;;;5093173;28;20378;-84
2021/07/03 03:05:24;;;;;;;0.40;0.20;;;13.90;99.90;;;;;;5093765;28;20390;-83
2021/07/03 03:07:50;;;;;;;0.40;0.20;;;14.00;99.90;;;;;;5093673;28;20378;-84
2021/07/03 03:10:17;;;;;;;0.40;0.20;;;14.00;99.90;;;;;;5092690;28;20501;-84
2021/07/03 03:12:44;;;;;;;0.40;0.20;;;14.00;99.90;;;;;;5093635;28;20382;-83
2021/07/03 03:15:11;;;;;;;0.40;0.30;;;14.30;99.90;;;;;;5092646;28;20806;-84
2021/07/03 03:17:37;;;;;;;0.40;0.20;;;13.80;99.90;;;;;;5093138;28;20707;-83
2021/07/03 03:20:06;;;;;;;0.40;0.20;;;13.90;99.90;;;;;;5092676;28;20461;-84
2021/07/03 03:22:32;;;;;;;0.40;0.20;;;13.70;99.90;;;;;;5093288;28;20381;-83
2021/07/03 03:24:57;;;;;;;0.40;0.20;;;13.60;99.90;;;;;;5092297;28;20382;-83
2021/07/03 03:27:23;;;;;;;0.50;0.50;;;13.70;99.90;;;;;;5093200;28;20374;-83
2021/07/03 03:29:48;;;;;;;0.40;0.20;;;13.60;99.90;;;;;;5074363;28;20451;-83
2021/07/03 03:32:14;;;;;;;0.40;0.20;;;13.60;99.90;;;;;;5092603;28;20640;-83
2021/07/03 03:34:40;;;;;;;0.40;0.20;;;13.60;99.90;;;;;;5092937;28;20703;-84
2021/07/03 03:37:05;;;;;;;0.40;0.25;;;13.70;99.90;;;;;;5092759;28;20417;-84
2021/07/03 03:39:31;;;;;;;0.40;0.20;;;13.70;99.90;;;;;;5092859;28;20702;-85
2021/07/03 03:41:57;;;;;;;0.40;0.20;;;13.80;99.90;;;;;;5092501;28;20439;-84
2021/07/03 03:44:22;;;;;;;0.40;0.20;;;13.80;99.90;;;;;;5092752;28;20370;-84
2021/07/03 03:46:52;;;;;;;0.40;0.40;;;13.90;99.90;;;;;;5092875;28;20374;-83
2021/07/03 03:49:21;;;;;;;0.40;0.20;;;13.80;99.90;;;;;;5074143;28;20386;-82
2021/07/03 03:51:48;;;;;;;0.40;0.20;;;13.80;99.90;;;;;;5099440;28;20926;-84
2021/07/03 03:54:14;;;;;;;0.40;0.20;;;13.90;99.90;;;;;;5112510;28;20776;-84
2021/07/03 03:56:40;;;;;;;0.40;0.20;;;14.00;99.90;;;;;;5113260;28;20470;-82
2021/07/03 03:59:06;;;;;;;0.40;0.20;;;14.30;99.90;;;;;;5093932;28;20766;-84
2021/07/03 04:01:31;;;;;;;0.40;0.20;;;14.30;99.90;;;;;;5113203;28;20379;-84
2021/07/03 04:03:57;;;;;;;0.40;0.30;;;14.40;99.90;;;;;;5112518;28;20708;-85
2021/07/03 04:06:23;;;;;;;0.40;0.20;;;14.40;99.90;;;;;;5113206;28;20392;-84
2021/07/03 04:08:48;;;;;;;0.40;0.30;;;14.40;99.90;;;;;;5112931;28;20408;-84
2021/07/03 04:11:14;;;;;;;0.40;0.20;;;14.60;99.90;;;;;;5112483;28;20895;-83
2021/07/03 04:13:40;;;;;;;0.40;0.20;;;14.40;99.90;;;;;;5112977;28;20377;-84
2021/07/03 04:16:05;;;;;;;0.40;0.20;;;14.50;99.90;;;;;;5094452;28;20973;-85
2021/07/03 04:18:31;;;;;;;0.40;0.20;;;14.60;99.90;;;;;;5113565;28;20376;-84
2021/07/03 04:20:56;;;;;;;0.40;0.20;;;14.40;99.90;;;;;;5113015;28;20384;-84
2021/07/03 04:23:22;;;;;;;0.40;0.20;;;14.60;99.90;;;;;;5094049;28;20387;-85
2021/07/03 04:25:48;;;;;;;0.40;0.20;;;14.50;99.90;;;;;;5112446;28;20479;-84
2021/07/03 04:28:14;;;;;;;0.40;0.20;;;14.50;99.90;;;;;;5112292;28;20400;-85
2021/07/03 04:30:39;;;;;;;0.40;0.20;;;14.60;99.90;;;;;;5112692;28;20396;-84
2021/07/03 04:33:06;;;;;;;0.40;0.20;;;14.70;99.90;;;;;;5111886;28;20403;-85
2021/07/03 04:35:32;;;;;;;0.40;0.20;;;14.70;99.90;;;;;;5113165;28;20384;-84
2021/07/03 04:38:01;;;;;;;0.40;0.20;;;14.80;99.90;;;;;;5113611;28;20876;-85
2021/07/03 04:40:26;;;;;;;0.40;0.20;;;15.40;99.90;;;;;;5113638;28;20376;-85
2021/07/03 04:42:52;;;;;;;0.40;0.20;;;15.00;99.90;;;;;;5112733;28;20379;-85
2021/07/03 04:45:18;;;;;;;0.40;0.20;;;15.10;99.90;;;;;;5112123;28;20379;-84
2021/07/03 04:47:43;;;;;;;0.40;0.20;;;15.10;99.90;;;;;;5112647;28;20377;-83
2021/07/03 04:50:09;;;;;;;0.40;0.20;;;15.00;99.90;;;;;;5112729;28;20376;-84
2021/07/03 04:52:36;;;;;;;0.40;0.20;;;15.00;99.90;;;;;;5080899;28;20730;-85
2021/07/03 04:55:04;;;;;;;0.40;0.20;;;15.00;99.90;;;;;;5091404;28;20385;-85
2021/07/03 04:57:29;;;;;;;0.40;0.20;;;15.00;99.90;;;;;;5091936;28;20838;-83
2021/07/03 04:59:55;;;;;;;0.40;0.20;;;15.20;99.90;;;;;;5091695;28;20378;-84
2021/07/03 05:02:21;;;;;;;0.40;0.20;;;15.00;99.90;;;;;;5091432;28;20397;-84
2021/07/03 05:04:46;;;;;;;0.40;0.20;;;15.10;99.90;;;;;;5092117;28;20730;-85
2021/07/03 05:07:12;;;;;;;0.40;0.20;;;15.10;99.90;;;;;;5091007;28;20366;-84
2021/07/03 05:09:38;;;;;;;0.40;0.20;;;15.00;99.90;;;;;;5091685;28;20838;-83
2021/07/03 05:12:04;;;;;;;0.40;0.20;;;15.10;99.90;;;;;;5090949;28;20426;-85
2021/07/03 05:14:32;;;;;;;0.40;0.20;;;15.20;99.90;;;;;;5092434;28;20873;-85
2021/07/03 05:16:57;;;;;;;0.40;0.20;;;15.20;99.90;;;;;;5091852;28;20375;-84
2021/07/03 05:19:23;;;;;;;0.40;0.20;;;15.20;99.90;;;;;;5091177;28;20814;-86
2021/07/03 05:21:49;;;;;;;0.40;0.20;;;15.20;99.90;;;;;;5092288;28;20386;-86
2021/07/03 05:24:15;;;;;;;0.40;0.20;;;15.10;99.90;;;;;;5073596;28;20457;-85
2021/07/03 05:26:40;;;;;;;0.40;0.20;;;15.10;99.90;;;;;;5091871;28;20398;-84
2021/07/03 05:29:06;;;;;;;0.40;0.20;;;15.20;99.90;;;;;;5091185;28;20384;-83
2021/07/03 05:31:32;;;;;;;0.40;0.30;;;15.10;99.90;;;;;;5091616;28;20394;-86
2021/07/03 05:33:58;;;;;;;0.40;0.20;;;15.20;99.90;;;;;;5091798;28;20409;-86
2021/07/03 05:36:25;;;;;;;0.40;0.20;;;15.20;99.90;;;;;;5091168;28;20451;-86
2021/07/03 05:38:51;;;;;;;0.40;0.30;;;15.30;99.90;;;;;;5073673;28;20793;-86
2021/07/03 05:41:18;;;;;;;0.40;0.20;;;15.30;99.90;;;;;;5090856;28;20544;-86
2021/07/03 05:43:44;;;;;;;0.40;0.20;;;15.50;99.90;;;;;;5091661;28;20375;-84
2021/07/03 05:46:11;;;;;;;0.40;0.20;;;15.50;99.90;;;;;;5090946;28;20374;-86
2021/07/03 05:48:39;;;;;;;0.40;0.20;;;15.50;99.90;;;;;;5073634;28;20994;-86
2021/07/03 05:51:05;;;;;;;0.40;0.20;;;15.50;99.90;;;;;;5090906;28;20416;-86
2021/07/03 05:53:31;;;;;;;0.40;0.20;;;15.50;99.90;;;;;;5094089;28;20389;-85
2021/07/03 05:55:56;;;;;;;0.40;0.20;;;15.60;99.90;;;;;;5095709;28;20534;-85
2021/07/03 05:58:22;;;;;;;0.40;0.20;;;15.70;99.90;;;;;;5094959;28;20834;-86
2021/07/03 06:00:48;;;;;;;0.40;0.30;;;15.70;99.90;;;;;;5095428;28;20829;-86
2021/07/03 06:03:13;;;;;;;0.40;0.20;;;15.80;99.90;;;;;;5095112;28;20431;-86
2021/07/03 06:05:39;;;;;;;0.40;0.20;;;15.80;99.90;;;;;;5094989;28;20374;-87
2021/07/03 06:08:05;;;;;;;0.40;0.20;;;15.90;99.90;;;;;;5094770;28;20496;-86
2021/07/03 06:10:31;;;;;;;0.40;0.20;;;16.00;99.90;;;;;;5094819;28;20482;-86
2021/07/03 06:12:56;;;;;;;0.40;0.20;;;16.10;99.90;;;;;;5095258;28;20438;-85
2021/07/03 06:15:22;;;;;;;0.40;0.20;;;16.30;99.90;;;;;;5094207;28;20480;-86
2021/07/03 06:17:47;;;;;;;0.40;0.20;;;16.30;99.90;;;;;;5094788;28;20907;-85
2021/07/03 06:20:14;;;;;;;0.40;0.20;;;16.40;99.90;;;;;;5094110;28;20428;-86
2021/07/03 06:22:40;;;;;;;0.40;0.20;;;16.50;99.90;;;;;;5095193;28;20738;-86
2021/07/03 06:25:08;;;;;;;0.40;0.20;;;16.70;99.90;;;;;;5093970;28;20390;-88
2021/07/03 06:27:34;;;;;;;0.40;0.20;;;16.70;99.90;;;;;;5094897;28;20412;-84
2021/07/03 06:30:00;;;;;;;0.40;0.30;;;16.80;99.90;;;;;;5094756;28;20438;-84
2021/07/03 06:32:26;;;;;;;0.60;0.60;;;16.90;99.90;;;;;;5094004;28;20867;-85
2021/07/03 06:34:52;;;;;;;0.40;0.20;;;17.00;99.90;;;;;;5094799;28;20515;-85
2021/07/03 06:37:17;;;;;;;0.40;0.30;;;17.00;99.90;;;;;;5094312;28;20410;-85
2021/07/03 06:39:44;;;;;;;0.40;0.20;;;17.10;99.90;;;;;;5094605;28;20822;-85
2021/07/03 06:42:11;;;;;;;0.40;0.30;;;17.20;99.90;;;;;;5093931;28;20378;-85
2021/07/03 06:44:37;;;;;;;0.40;0.20;;;17.20;99.90;;;;;;5094407;28;20381;-85
2021/07/03 06:47:03;;;;;;;0.40;0.30;;;17.30;99.90;;;;;;5094374;28;20366;-85
2021/07/03 06:49:29;;;;;;;0.40;0.20;;;17.30;99.90;;;;;;5093566;28;20842;-85
2021/07/03 06:51:55;;;;;;;0.40;0.20;;;17.40;99.90;;;;;;5100979;28;20403;-86
2021/07/03 06:54:20;;;;;;;0.40;0.20;;;17.50;99.90;;;;;;5114177;28;20380;-86
2021/07/03 06:56:46;;;;;;;0.40;0.40;;;17.60;99.90;;;;;;5115083;28;20373;-85
2021/07/03 06:59:12;;;;;;;0.40;0.20;;;17.70;99.90;;;;;;5114426;28;20410;-85
2021/07/03 07:01:38;;;;;;;0.40;0.20;;;18.20;99.90;;;;;;5114348;28;20451;-84
2021/07/03 07:04:03;;;;;;;0.40;0.20;;;18.30;99.90;;;;;;5114877;28;20511;-82
2021/07/03 07:06:29;;;;;;;0.40;0.20;;;18.30;99.90;;;;;;5113574;28;20459;-82
2021/07/03 07:08:55;;;;;;;0.40;0.20;;;18.40;99.90;;;;;;5114424;28;20384;-82
2021/07/03 07:11:21;;;;;;;0.40;0.20;;;18.40;99.90;;;;;;5113573;28;20392;-84
2021/07/03 07:13:46;;;;;;;0.40;0.30;;;18.50;99.90;;;;;;5114418;28;20451;-83
2021/07/03 07:16:12;;;;;;;0.50;0.50;;;18.60;99.90;;;;;;5113747;28;20426;-83
2021/07/03 07:18:38;;;;;;;0.40;0.20;;;18.60;99.90;;;;;;5114703;28;20387;-83
2021/07/03 07:21:03;;;;;;;0.40;0.20;;;18.60;99.90;;;;;;5096110;28;20392;-84
2021/07/03 07:23:29;;;;;;;0.40;0.20;;;18.70;99.90;;;;;;5113546;28;20373;-86
2021/07/03 07:25:55;;;;;;;0.40;0.20;;;18.80;99.90;;;;;;5114239;28;20500;-86
2021/07/03 07:28:21;;;;;;;0.40;0.20;;;18.80;99.90;;;;;;5102591;28;20380;-86
2021/07/03 07:30:46;;;;;;;0.40;0.20;;;18.80;99.90;;;;;;5101693;28;20429;-87
2021/07/03 07:33:12;;;;;;;0.40;0.20;;;18.90;99.90;;;;;;5101102;28;20385;-86
2021/07/03 07:35:38;;;;;;;0.40;0.30;;;18.90;99.90;;;;;;5101382;28;20800;-86
2021/07/03 07:38:04;;;;;;;0.40;0.20;;;19.10;99.90;;;;;;5109239;28;20385;-87
2021/07/03 07:40:29;;;;;;;0.40;0.20;;;19.20;99.90;;;;;;5077682;28;20819;-86
2021/07/03 07:42:55;;;;;;;0.40;0.30;;;19.10;99.90;;;;;;5099104;28;20382;-89
2021/07/03 07:45:24;;;;;;;0.40;0.20;;;19.20;99.90;;;;;;5103100;28;20415;-87
2021/07/03 07:47:49;;;;;;;0.40;0.20;;;19.30;99.90;;;;;;5113148;28;20888;-87
2021/07/03 07:50:15;;;;;;;0.40;0.20;;;19.30;99.90;;;;;;5103837;28;20486;-86
2021/07/03 07:52:41;;;;;;;0.40;0.20;;;19.40;99.90;;;;;;5100062;28;20842;-86
2021/07/03 07:55:08;;;;;;;0.40;0.20;;;19.30;99.90;;;;;;5109674;28;20380;-88
2021/07/03 07:57:33;;;;;;;0.40;0.30;;;19.40;99.90;;;;;;5100500;28;20453;-86
2021/07/03 07:59:59;;;;;;;0.40;0.30;;;19.50;99.90;;;;;;5101131;28;20417;-88
2021/07/03 08:02:24;;;;;;;0.40;0.20;;;19.50;99.90;;;;;;5108889;28;20379;-84
2021/07/03 08:04:50;;;;;;;0.40;0.20;;;19.70;99.90;;;;;;5100976;28;20800;-84
2021/07/03 08:07:16;;;;;;;0.40;0.20;;;19.70;99.90;;;;;;5090594;28;20377;-84
2021/07/03 08:09:44;;;;;;;0.40;0.30;;;19.80;99.90;;;;;;5096911;28;20426;-87
2021/07/03 08:12:12;;;;;;;0.40;0.20;;;19.90;99.90;;;;;;5104408;28;20465;-83
2021/07/03 08:14:38;;;;;;;0.40;0.20;;;20.00;99.90;;;;;;5104324;28;20802;-81
2021/07/03 08:17:04;;;;;;;0.40;0.20;;;20.10;99.90;;;;;;5078050;28;20865;-84
2021/07/03 08:19:29;;;;;;;0.40;0.20;;;20.10;99.90;;;;;;5091969;28;20374;-83
2021/07/03 08:21:58;;;;;;;0.40;0.30;;;20.30;99.90;;;;;;5074436;28;20390;-82
2021/07/03 08:24:24;;;;;;;0.40;0.30;;;20.50;99.90;;;;;;5091929;28;20366;-82
2021/07/03 08:26:50;;;;;;;0.40;0.20;;;20.50;99.90;;;;;;5097168;28;20487;-82
2021/07/03 08:29:16;;;;;;;0.40;0.30;;;20.50;99.90;;;;;;5103045;28;20379;-84
2021/07/03 08:31:42;;;;;;;0.40;0.20;;;20.40;99.90;;;;;;5103976;28;20940;-81
2021/07/03 08:34:11;;;;;;;0.40;0.25;;;20.50;99.90;;;;;;5104630;28;20849;-81
2021/07/03 08:36:36;;;;;;;0.40;0.20;;;20.80;99.90;;;;;;5089703;28;20439;-83
2021/07/03 08:39:03;;;;;;;0.40;0.20;;;20.80;99.50;;;;;;5100179;28;20378;-83
2021/07/03 08:41:31;;;;;;;0.40;0.20;;;20.80;99.20;;;;;;5101928;28;20374;-83
2021/07/03 08:43:58;;;;;;;0.40;0.20;;;20.80;98.90;;;;;;5111969;28;20909;-83
2021/07/03 08:46:24;;;;;;;0.50;0.30;;;20.90;98.80;;;;;;5101857;28;20375;-82
2021/07/03 08:48:55;;;;;;;0.40;0.20;;;21.00;99.10;;;;;;5081721;28;20385;-82
2021/07/03 08:51:22;;;;;;;0.40;0.20;;;21.20;98.80;;;;;;5100259;28;20396;-83
2021/07/03 08:53:49;;;;;;;0.40;0.20;;;21.30;98.30;;;;;;5107608;28;20749;-81
2021/07/03 08:56:15;;;;;;;0.40;0.30;;;21.30;98.10;;;;;;5099379;28;20882;-83
2021/07/03 08:58:41;;;;;;;0.40;0.30;;;21.20;98.10;;;;;;5100109;28;20382;-81
2021/07/03 09:01:06;;;;;;;0.40;0.22;;;21.30;97.90;;;;;;5100075;28;20457;-82
2021/07/03 09:03:33;;;;;;;0.40;0.20;;;21.40;97.70;;;;;;5098628;28;20664;-80
2021/07/03 09:06:04;;;;;;;0.47;0.32;;;21.40;98.40;;;;;;5074405;28;20398;-82
2021/07/03 09:08:30;;;;;;;0.40;0.30;;;21.60;98.40;;;;;;5093309;28;20465;-83
2021/07/03 09:11:05;;;;;;;0.60;0.50;;;21.40;99.60;;;;;;5073483;28;20484;-80
2021/07/03 09:13:32;;;;;;;0.40;0.30;;;21.70;99.80;;;;;;5091206;28;20386;-82
2021/07/03 09:15:58;;;;;;;0.40;0.30;;;21.90;99.90;;;;;;5091832;28;20385;-82
2021/07/03 09:18:27;;;;;;;0.40;0.20;;;21.80;99.50;;;;;;5091222;28;20370;-82
2021/07/03 09:20:58;;;;;;;0.40;0.20;;;21.90;99.10;;;;;;5091856;28;20382;-81
2021/07/03 09:23:30;;;;;;;0.40;0.30;;;21.80;98.90;;;;;;5091000;28;20378;-82
2021/07/03 09:26:01;;;;;;;0.40;0.30;;;21.90;97.40;;;;;;5091936;28;20390;-82
2021/07/03 09:28:44;;;;;;;0.40;0.20;;;21.90;97.90;;;;;;5106860;28;20379;-83
2021/07/03 09:31:13;;;;;;;0.40;0.20;;;21.90;98.20;;;;;;5094111;28;20964;-83
2021/07/03 09:33:44;;;;;;;0.40;0.20;;;22.00;98.00;;;;;;5093768;28;20384;-83
2021/07/03 09:36:12;;;;;;;0.40;0.20;;;22.10;97.10;;;;;;5092343;28;20390;-82
2021/07/03 09:38:43;;;;;;;0.40;0.20;;;22.20;96.40;;;;;;5093747;28;20388;-81
2021/07/03 09:41:14;;;;;;;0.40;0.20;;;22.40;97.40;;;;;;5091832;28;20382;-81
2021/07/03 09:43:49;;;;;;;0.40;0.30;;;22.30;97.20;;;;;;5097581;28;20389;-83
2021/07/03 09:46:35;;;;;;;0.40;0.20;;;22.30;96.70;;;;;;5083210;28;20963;-82
2021/07/03 09:49:07;;;;;;;0.40;0.30;;;22.40;96.10;;;;;;5100188;28;20444;-81
2021/07/03 09:51:36;;;;;;;0.40;0.30;;;22.60;95.40;;;;;;5098514;28;20402;-86
2021/07/03 09:54:07;;;;;;;0.40;0.20;;;22.40;96.30;;;;;;5099533;28;20889;-81
2021/07/03 09:56:33;;;;;;;0.40;0.20;;;22.50;96.70;;;;;;5099898;28;20900;-83
2021/07/03 09:58:59;;;;;;;0.40;0.20;;;22.60;94.90;;;;;;5082601;28;20420;-86
2021/07/03 10:01:25;;;;;;;0.40;0.30;;;22.80;94.90;;;;;;5100592;28;20388;-82
2021/07/03 10:03:51;;;;;;;0.40;0.20;;;22.80;94.90;;;;;;5096421;28;20831;-85
2021/07/03 10:06:25;;;;;;;0.40;0.20;;;22.80;93.50;;;;;;5101489;28;20742;-82
2021/07/03 10:08:55;;;;;;;0.40;0.20;;;22.90;93.90;;;;;;5081392;28;20775;-82
2021/07/03 10:11:23;;;;;;;0.40;0.20;;;23.00;93.00;;;;;;5098746;28;20507;-82
2021/07/03 10:14:02;;;;;;;0.40;0.20;;;22.90;93.80;;;;;;5097460;28;20898;-85
2021/07/03 10:16:29;;;;;;;0.40;0.20;;;22.90;92.80;;;;;;5097562;28;20366;-83
2021/07/03 10:19:14;;;;;;;0.40;0.22;;;23.00;92.40;;;;;;5107052;28;20376;-86
2021/07/03 10:21:41;;;;;;;0.40;0.20;;;23.00;93.50;;;;;;5095637;28;20433;-84
2021/07/03 10:24:21;;;;;;;0.40;0.30;;;23.10;92.40;;;;;;5103375;28;20751;-85
2021/07/03 10:26:50;;;;;;;0.40;0.20;;;23.10;92.50;;;;;;5096594;28;20823;-86
2021/07/03 10:29:22;;;;;;;0.40;0.30;;;23.20;92.20;;;;;;5097409;28;20378;-82
2021/07/03 10:31:50;;;;;;;0.40;0.28;;;23.10;91.80;;;;;;5102075;28;20448;-84
2021/07/03 10:34:32;;;;;;;0.40;0.30;;;23.30;91.50;;;;;;5098062;28;20412;-83
2021/07/03 10:36:59;;;;;;;0.70;0.70;;;23.40;91.30;;;;;;5101587;28;20403;-86
2021/07/03 10:39:29;;;;;;;0.40;0.30;;;23.40;91.30;;;;;;5079470;28;20394;-84
2021/07/03 10:41:55;;;;;;;0.80;0.50;;;23.40;90.70;;;;;;5107065;28;20391;-86
2021/07/03 10:44:21;;;;;;;0.40;0.20;;;23.60;90.00;;;;;;5114683;28;20368;-87
2021/07/03 10:46:48;;;;;;;0.40;0.20;;;23.60;89.40;;;;;;5098436;28;20378;-84
2021/07/03 10:49:29;;;;;;;0.40;0.20;;;23.80;90.20;;;;;;5092691;28;20391;-83
2021/07/03 10:51:54;;;;;;;0.40;0.30;;;24.00;90.20;;;;;;5076530;28;20405;-81
2021/07/03 10:54:26;;;;;;;0.40;0.30;;;24.20;89.50;;;;;;5106720;28;20381;-84
2021/07/03 10:57:10;;;;;;;0.40;0.20;;;24.10;86.20;;;;;;5084760;28;20393;-85
2021/07/03 10:59:38;;;;;;;0.40;0.20;;;24.30;84.50;;;;;;5085920;28;20387;-85
2021/07/03 11:02:16;;;;;;;0.40;0.30;;;24.40;82.90;;;;;;5102408;28;20392;-85
2021/07/03 11:04:48;;;;;;;0.40;0.20;;;24.40;80.70;;;;;;5103068;28;20531;-84
2021/07/03 11:07:25;;;;;;;0.40;0.20;;;24.50;80.00;;;;;;5100489;28;20493;-84
2021/07/03 11:09:50;;;;;;;0.40;0.30;;;24.60;81.10;;;;;;5104130;28;20408;-85
2021/07/03 11:12:19;;;;;;;0.40;0.20;;;25.00;81.70;;;;;;5086290;28;21000;-85
2021/07/03 11:14:56;;;;;;;0.40;0.30;;;25.10;82.60;;;;;;5101307;28;20378;-83
2021/07/03 11:17:26;;;;;;;0.40;0.25;;;24.60;78.70;;;;;;5103213;28;20399;-86
2021/07/03 11:19:54;;;;;;;0.40;0.20;;;24.80;87.00;;;;;;5102446;28;20377;-86
2021/07/03 11:22:23;;;;;;;0.40;0.30;;;25.20;87.40;;;;;;5093911;28;20382;-86
2021/07/03 11:24:56;;;;;;;0.40;0.20;;;25.10;82.90;;;;;;5092912;28;20382;-85
2021/07/03 11:27:32;;;;;;;0.40;0.30;;;25.10;86.80;;;;;;5093923;28;20455;-82
2021/07/03 11:30:00;;;;;;;1.00;0.50;;;25.50;81.50;;;;;;5077434;28;20939;-85
2021/07/03 11:32:27;;;;;;;0.40;0.30;;;25.30;79.90;;;;;;5097321;28;20455;-86
2021/07/03 11:35:02;;;;;;;0.40;0.30;;;25.10;83.50;;;;;;5098953;28;20390;-84
2021/07/03 11:37:33;;;;;;;0.40;0.30;;;25.00;81.50;;;;;;5108018;28;20390;-85
2021/07/03 11:40:03;;;;;;;0.40;0.30;;;25.30;81.90;;;;;;5097026;28;20384;-84
2021/07/03 11:42:36;;;;;;;0.40;0.30;;;25.10;87.00;;;;;;5086998;28;20430;-85
2021/07/03 11:45:05;;;;;;;0.40;0.30;;;25.20;85.90;;;;;;5105346;28;20841;-86
2021/07/03 11:47:47;;;;;;;0.40;0.20;;;25.50;85.20;;;;;;5096064;28;20390;-83
2021/07/03 11:50:24;;;;;;;0.40;0.30;;;25.40;82.50;;;;;;5077160;28;20394;-85
2021/07/03 11:52:58;;;;;;;0.40;0.20;;;26.00;85.20;;;;;;5094398;28;20400;-85
2021/07/03 11:55:35;;;;;;;0.40;0.20;;;26.60;77.80;;;;;;5097670;28;20461;-88
2021/07/03 11:58:02;;;;;;;0.50;0.20;;;27.10;75.60;;;;;;5078830;28;20736;-86
2021/07/03 12:00:36;;;;;;;0.40;0.20;;;27.10;72.70;;;;;;5105059;28;20378;-88
2021/07/03 12:03:08;;;;;;;0.40;0.20;;;26.90;73.30;;;;;;5093317;28;20385;-86
2021/07/03 12:05:39;;;;;;;0.40;0.20;;;26.40;75.70;;;;;;5109504;28;20427;-83
2021/07/03 12:08:07;;;;;;;0.40;0.30;;;26.50;77.30;;;;;;5093770;28;20443;-88
2021/07/03 12:10:47;;;;;;;0.40;0.20;;;26.20;74.60;;;;;;5100041;28;20405;-86
2021/07/03 12:13:27;;;;;;;0.40;0.30;;;26.60;74.70;;;;;;5099454;28;20540;-85
2021/07/03 12:15:58;;;;;;;0.40;0.30;;;25.90;76.80;;;;;;5104236;28;20378;-83
2021/07/03 12:18:40;;;;;;;0.40;0.20;;;25.50;77.60;;;;;;5100894;28;20386;-88
2021/07/03 12:21:10;;;;;;;0.40;0.30;;;25.40;77.40;;;;;;5074735;28;20390;-89
2021/07/03 12:23:47;;;;;;;0.40;0.30;;;25.20;79.80;;;;;;5092287;28;20436;-89
2021/07/03 12:26:17;;;;;;;0.40;0.30;;;25.40;79.80;;;;;;5092301;28;20488;-86
2021/07/03 12:29:03;;;;;;;0.40;0.20;;;25.60;83.20;;;;;;5091818;28;20746;-88
2021/07/03 12:31:31;;;;;;;0.40;0.30;;;25.70;77.80;;;;;;5091713;28;20951;-86
2021/07/03 12:34:11;;;;;;;0.40;0.25;;;25.80;79.00;;;;;;5092440;28;20374;-87
2021/07/03 12:36:42;;;;;;;0.40;0.30;;;25.90;79.50;;;;;;5091467;28;20456;-89
2021/07/03 12:39:16;;;;;;;0.50;0.30;;;26.20;81.70;;;;;;5092407;28;20414;-87
2021/07/03 12:41:45;;;;;;;0.40;0.30;;;26.30;75.70;;;;;;5091663;28;20389;-89
2021/07/03 12:44:11;;;;;;;0.50;0.30;;;26.70;76.60;;;;;;5074275;28;20416;-88
2021/07/03 12:46:39;;;;;;;0.40;0.30;;;26.90;74.00;;;;;;5091634;28;20385;-86
2021/07/03 12:49:06;;;;;;;0.40;0.20;;;26.40;74.00;;;;;;5092095;28;20382;-88
2021/07/03 12:51:37;;;;;;;0.40;0.20;;;26.60;74.40;;;;;;5091280;28;20393;-85